Time;durP1;ratioP1;P1;durP2;ratioP2;P2;SDS_P1;SDS_P2;PMS_P1;PMS_P2;Temp;Humidity;BMP_temperature;BMP_pressure;BME280_temperature;BME280_humidity;BME280_pressure;Samples;Min_cycle;Max_cycle;Signal;HPM_P1;HPM_P2
2021/05/10 00:00:32;;;;;;;1.63;1.53;;;;;;;;;;5029144;28;20751;-74
2021/05/10 00:02:58;;;;;;;1.63;1.30;;;;;;;;;;5031434;28;20447;-73
2021/05/10 00:05:24;;;;;;;1.00;0.90;;;;;;;;;;5029077;28;20461;-77
2021/05/10 00:07:50;;;;;;;1.13;0.87;;;;;;;;;;5047288;28;20442;-77
2021/05/10 00:10:17;;;;;;;1.50;0.90;;;;;;;;;;5039008;28;20478;-75
2021/05/10 00:12:43;;;;;;;0.93;0.70;;;;;;;;;;5032856;28;20435;-77
2021/05/10 00:15:11;;;;;;;1.10;0.77;;;;;;;;;;5042062;28;20837;-76
2021/05/10 00:17:37;;;;;;;0.90;0.70;;;;;;;;;;5036444;28;20386;-77
2021/05/10 00:20:04;;;;;;;1.73;1.40;;;;;;;;;;5039349;28;20407;-77
2021/05/10 00:22:30;;;;;;;1.30;0.87;;;;;;;;;;5040971;28;20778;-77
2021/05/10 00:24:56;;;;;;;1.00;0.73;;;;;;;;;;5043438;28;20430;-76
2021/05/10 00:27:22;;;;;;;0.90;0.80;;;;;;;;;;5046992;28;20491;-75
2021/05/10 00:29:48;;;;;;;3.00;2.70;;;;;;;;;;5034788;28;20401;-75
2021/05/10 00:32:16;;;;;;;0.80;0.80;;;;;;;;;;5034789;28;20403;-75
2021/05/10 00:34:42;;;;;;;1.33;0.90;;;;;;;;;;5034986;28;20375;-75
2021/05/10 00:37:08;;;;;;;2.30;1.47;;;;;;;;;;5034826;28;20408;-75
2021/05/10 00:39:34;;;;;;;2.40;1.20;;;;;;;;;;5039897;28;20404;-78
2021/05/10 00:42:00;;;;;;;1.37;1.17;;;;;;;;;;5035583;28;20401;-76
2021/05/10 00:44:26;;;;;;;3.70;2.50;;;;;;;;;;5035381;28;20451;-75
2021/05/10 00:46:54;;;;;;;1.27;1.07;;;;;;;;;;5034721;28;20398;-75
2021/05/10 00:49:21;;;;;;;5.50;1.57;;;;;;;;;;5035259;28;20872;-75
2021/05/10 00:51:47;;;;;;;1.67;1.57;;;;;;;;;;5026281;28;20388;-75
2021/05/10 00:54:13;;;;;;;1.20;1.00;;;;;;;;;;5027061;28;20414;-74
2021/05/10 00:56:39;;;;;;;1.20;1.10;;;;;;;;;;5036496;28;20522;-72
2021/05/10 00:59:05;;;;;;;2.27;1.03;;;;;;;;;;5034394;28;20485;-74
2021/05/10 01:01:31;;;;;;;0.90;0.77;;;;;;;;;;5044218;28;20382;-77
2021/05/10 01:03:57;;;;;;;5.03;1.60;;;;;;;;;;5050591;28;20457;-74
2021/05/10 01:06:26;;;;;;;1.10;1.00;;;;;;;;;;5039802;28;20441;-74
2021/05/10 01:08:52;;;;;;;1.40;1.13;;;;;;;;;;5034191;28;20465;-74
2021/05/10 01:11:18;;;;;;;4.03;1.23;;;;;;;;;;5030938;28;20838;-76
2021/05/10 01:13:48;;;;;;;1.30;1.00;;;;;;;;;;5012924;28;20512;-74
2021/05/10 01:16:14;;;;;;;1.30;0.83;;;;;;;;;;5027161;28;20501;-74
2021/05/10 01:18:41;;;;;;;1.30;1.10;;;;;;;;;;5032374;28;20470;-75
2021/05/10 01:21:09;;;;;;;2.03;1.10;;;;;;;;;;5013577;28;20372;-75
2021/05/10 01:23:38;;;;;;;1.20;1.10;;;;;;;;;;5014167;28;20481;-75
2021/05/10 01:26:04;;;;;;;2.03;1.10;;;;;;;;;;5040774;28;20981;-75
2021/05/10 01:28:30;;;;;;;1.50;1.40;;;;;;;;;;5049641;28;20383;-74
2021/05/10 01:30:56;;;;;;;2.17;1.23;;;;;;;;;;5033732;28;20409;-75
2021/05/10 01:33:22;;;;;;;1.63;1.13;;;;;;;;;;5048797;28;20416;-74
2021/05/10 01:35:50;;;;;;;1.33;1.10;;;;;;;;;;5031720;28;20435;-72
2021/05/10 01:38:16;;;;;;;0.90;0.80;;;;;;;;;;5033484;28;20434;-75
2021/05/10 01:40:42;;;;;;;0.90;0.80;;;;;;;;;;5032686;28;20424;-73
2021/05/10 01:43:09;;;;;;;1.93;0.90;;;;;;;;;;5033276;28;20429;-75
2021/05/10 01:45:36;;;;;;;2.37;2.17;;;;;;;;;;5032850;28;20820;-72
2021/05/10 01:48:03;;;;;;;1.00;0.83;;;;;;;;;;5032086;28;20427;-74
2021/05/10 01:50:29;;;;;;;1.10;0.80;;;;;;;;;;5032654;28;20506;-72
2021/05/10 01:52:56;;;;;;;1.97;1.20;;;;;;;;;;5032965;28;20428;-72
2021/05/10 01:55:22;;;;;;;2.03;1.83;;;;;;;;;;5031765;28;20418;-72
2021/05/10 01:57:49;;;;;;;1.23;1.13;;;;;;;;;;5033097;28;20531;-71
2021/05/10 02:00:17;;;;;;;2.60;1.70;;;;;;;;;;5032858;28;20881;-73
2021/05/10 02:02:43;;;;;;;1.03;0.90;;;;;;;;;;5031600;28;20502;-71
2021/05/10 02:05:09;;;;;;;2.60;1.87;;;;;;;;;;5031403;28;20406;-72
2021/05/10 02:07:42;;;;;;;1.93;0.93;;;;;;;;;;5030961;28;20435;-72
2021/05/10 02:10:10;;;;;;;2.83;1.90;;;;;;;;;;5031175;28;20908;-72
2021/05/10 02:12:36;;;;;;;1.20;1.10;;;;;;;;;;5032540;28;20371;-72
2021/05/10 02:15:04;;;;;;;1.43;1.33;;;;;;;;;;5032159;28;20438;-70
2021/05/10 02:17:30;;;;;;;0.90;0.80;;;;;;;;;;5031416;28;20477;-72
2021/05/10 02:19:56;;;;;;;1.33;1.03;;;;;;;;;;5032026;28;20473;-72
2021/05/10 02:22:24;;;;;;;1.17;0.90;;;;;;;;;;5032103;28;20437;-72
2021/05/10 02:24:50;;;;;;;1.10;0.77;;;;;;;;;;5012399;28;20514;-71
2021/05/10 02:27:16;;;;;;;0.90;0.73;;;;;;;;;;5012505;28;20409;-72
2021/05/10 02:29:42;;;;;;;1.00;0.83;;;;;;;;;;5037664;28;20495;-72
2021/05/10 02:32:10;;;;;;;0.83;0.63;;;;;;;;;;5032473;28;20918;-70
2021/05/10 02:34:39;;;;;;;1.00;0.90;;;;;;;;;;5032097;28;20813;-71
2021/05/10 02:37:05;;;;;;;2.37;1.30;;;;;;;;;;5032287;28;20407;-71
2021/05/10 02:39:31;;;;;;;1.00;0.90;;;;;;;;;;5031608;28;20407;-72
2021/05/10 02:41:57;;;;;;;1.20;1.00;;;;;;;;;;5030824;28;20909;-74
2021/05/10 02:44:23;;;;;;;1.27;0.87;;;;;;;;;;5031508;28;20464;-73
2021/05/10 02:46:50;;;;;;;1.80;1.20;;;;;;;;;;5031909;28;20504;-73
2021/05/10 02:49:15;;;;;;;1.30;1.07;;;;;;;;;;5030828;28;20892;-77
2021/05/10 02:51:42;;;;;;;1.00;0.90;;;;;;;;;;5030354;28;20411;-77
2021/05/10 02:54:08;;;;;;;1.13;0.60;;;;;;;;;;5033655;28;20406;-76
2021/05/10 02:56:34;;;;;;;5.60;1.37;;;;;;;;;;5071996;22;20456;-79
2021/05/10 02:59:00;;;;;;;1.30;0.77;;;;;;;;;;5062420;28;20381;-80
2021/05/10 03:01:26;;;;;;;0.87;0.87;;;;;;;;;;5074127;28;20461;-79
2021/05/10 03:03:51;;;;;;;1.07;0.97;;;;;;;;;;5071076;28;20447;-80
2021/05/10 03:06:17;;;;;;;0.90;0.77;;;;;;;;;;5063024;28;20447;-81
2021/05/10 03:08:43;;;;;;;2.53;1.63;;;;;;;;;;5056247;28;20420;-81
2021/05/10 03:11:09;;;;;;;1.70;1.33;;;;;;;;;;5039665;28;20428;-82
2021/05/10 03:13:38;;;;;;;1.37;0.90;;;;;;;;;;5045566;28;20411;-82
2021/05/10 03:16:04;;;;;;;1.23;1.13;;;;;;;;;;5032237;28;20399;-79
2021/05/10 03:18:30;;;;;;;1.10;0.67;;;;;;;;;;5053139;28;20503;-79
2021/05/10 03:20:56;;;;;;;1.97;1.77;;;;;;;;;;5052892;28;20415;-82
2021/05/10 03:23:22;;;;;;;1.43;0.70;;;;;;;;;;5039253;28;20454;-81
2021/05/10 03:25:48;;;;;;;0.90;0.63;;;;;;;;;;5037458;28;20446;-81
2021/05/10 03:28:14;;;;;;;0.80;0.70;;;;;;;;;;5037645;28;20885;-81
2021/05/10 03:30:40;;;;;;;1.10;0.97;;;;;;;;;;5038544;28;20777;-81
2021/05/10 03:33:07;;;;;;;1.30;0.80;;;;;;;;;;5048903;28;20415;-84
2021/05/10 03:35:33;;;;;;;0.93;0.70;;;;;;;;;;5030683;28;20440;-77
2021/05/10 03:37:59;;;;;;;0.90;0.70;;;;;;;;;;5031662;28;20451;-79
2021/05/10 03:40:25;;;;;;;1.33;0.90;;;;;;;;;;5031958;28;20835;-79
2021/05/10 03:42:53;;;;;;;0.80;0.63;;;;;;;;;;5032237;28;20786;-79
2021/05/10 03:45:18;;;;;;;6.83;1.00;;;;;;;;;;5050128;28;20859;-80
2021/05/10 03:47:44;;;;;;;0.97;0.87;;;;;;;;;;5043918;28;20419;-82
2021/05/10 03:50:17;;;;;;;1.57;0.97;;;;;;;;;;5059726;28;20412;-81
2021/05/10 03:52:44;;;;;;;1.17;0.73;;;;;;;;;;5049108;28;20423;-79
2021/05/10 03:55:14;;;;;;;1.87;1.20;;;;;;;;;;5034568;28;20447;-80
2021/05/10 03:57:40;;;;;;;0.90;0.70;;;;;;;;;;5036408;28;20749;-80
2021/05/10 04:00:07;;;;;;;2.30;1.63;;;;;;;;;;5036992;28;20450;-79
2021/05/10 04:02:33;;;;;;;1.83;1.20;;;;;;;;;;5041458;28;20451;-83
2021/05/10 04:07:58;;;;;;;1.60;1.10;;;;;;;;;;5025711;28;20435;-82
2021/05/10 04:16:05;;;;;;;1.00;0.80;;;;;;;;;;5054502;28;20464;-81
2021/05/10 04:18:31;;;;;;;0.83;0.70;;;;;;;;;;5051936;28;21958;-81
2021/05/10 04:20:57;;;;;;;0.80;0.60;;;;;;;;;;5054774;28;20409;-85
2021/05/10 04:23:23;;;;;;;1.30;1.20;;;;;;;;;;5059626;28;20481;-86
2021/05/10 04:25:53;;;;;;;1.10;0.87;;;;;;;;;;5053219;28;20452;-86
2021/05/10 04:28:22;;;;;;;1.53;1.03;;;;;;;;;;5040796;28;20399;-86
2021/05/10 04:30:52;;;;;;;3.30;1.10;;;;;;;;;;5040040;28;20364;-86
2021/05/10 04:33:27;;;;;;;0.97;0.80;;;;;;;;;;5047806;28;20431;-83
2021/05/10 04:35:54;;;;;;;0.90;0.77;;;;;;;;;;5055969;28;20452;-83
2021/05/10 04:38:20;;;;;;;0.90;0.80;;;;;;;;;;5041860;28;20397;-83
2021/05/10 04:40:46;;;;;;;0.90;0.70;;;;;;;;;;5041714;28;20403;-83
2021/05/10 04:43:12;;;;;;;2.47;1.20;;;;;;;;;;5041884;28;20788;-83
2021/05/10 04:45:38;;;;;;;1.17;1.00;;;;;;;;;;5041736;28;20406;-83
2021/05/10 04:48:05;;;;;;;1.47;1.03;;;;;;;;;;5060868;28;20404;-83
2021/05/10 04:50:31;;;;;;;4.80;1.27;;;;;;;;;;5059988;28;20451;-83
2021/05/10 04:52:57;;;;;;;1.20;1.10;;;;;;;;;;5043226;28;20415;-83
2021/05/10 04:55:26;;;;;;;1.50;1.40;;;;;;;;;;5051385;28;20412;-82
2021/05/10 04:57:52;;;;;;;1.43;0.80;;;;;;;;;;5036088;28;20893;-82
2021/05/10 05:00:18;;;;;;;0.90;0.70;;;;;;;;;;5036128;28;20386;-82
2021/05/10 05:02:45;;;;;;;1.40;1.00;;;;;;;;;;5035213;28;20390;-82
2021/05/10 05:05:21;;;;;;;1.47;1.00;;;;;;;;;;5034210;28;20468;-82
2021/05/10 05:07:49;;;;;;;2.73;1.77;;;;;;;;;;5036858;28;20378;-82
2021/05/10 05:10:16;;;;;;;1.63;1.10;;;;;;;;;;5036390;28;20469;-83
2021/05/10 05:12:42;;;;;;;1.47;1.00;;;;;;;;;;5052307;28;20420;-83
2021/05/10 05:15:11;;;;;;;3.50;1.47;;;;;;;;;;5037471;28;20462;-82
2021/05/10 05:17:38;;;;;;;1.50;1.30;;;;;;;;;;5037617;28;20474;-81
2021/05/10 05:20:05;;;;;;;1.33;0.97;;;;;;;;;;5036934;28;20435;-80
2021/05/10 05:22:31;;;;;;;2.33;1.43;;;;;;;;;;5035910;28;20395;-80
2021/05/10 05:24:57;;;;;;;1.67;1.50;;;;;;;;;;5037069;28;20510;-84
2021/05/10 05:27:28;;;;;;;1.00;0.90;;;;;;;;;;5040589;28;20431;-84
2021/05/10 05:29:54;;;;;;;1.10;0.70;;;;;;;;;;5055982;28;20434;-85
2021/05/10 05:32:21;;;;;;;5.00;1.20;;;;;;;;;;5041184;28;20396;-84
2021/05/10 05:34:47;;;;;;;1.70;1.30;;;;;;;;;;5040783;28;20834;-84
2021/05/10 05:37:13;;;;;;;1.37;1.07;;;;;;;;;;5038615;28;20520;-84
2021/05/10 05:39:39;;;;;;;1.27;1.17;;;;;;;;;;5037651;28;20384;-84
2021/05/10 05:42:05;;;;;;;1.70;1.60;;;;;;;;;;5021912;28;20436;-84
2021/05/10 05:44:35;;;;;;;2.60;1.40;;;;;;;;;;5018961;28;20493;-84
2021/05/10 05:47:04;;;;;;;2.90;1.57;;;;;;;;;;5017149;28;20903;-84
2021/05/10 05:49:36;;;;;;;4.10;1.20;;;;;;;;;;5014487;28;20408;-88
2021/05/10 05:52:05;;;;;;;1.47;1.37;;;;;;;;;;5013358;28;20380;-88
2021/05/10 05:54:33;;;;;;;1.17;1.07;;;;;;;;;;5012531;28;20952;-84
2021/05/10 05:56:59;;;;;;;2.30;2.10;;;;;;;;;;5014322;28;20965;-85
2021/05/10 05:59:25;;;;;;;1.30;1.13;;;;;;;;;;5022757;28;20399;-81
2021/05/10 06:01:51;;;;;;;1.20;1.00;;;;;;;;;;5033582;28;20426;-84
2021/05/10 06:04:17;;;;;;;1.20;0.90;;;;;;;;;;5032552;28;20820;-84
2021/05/10 06:06:43;;;;;;;1.97;1.13;;;;;;;;;;5033251;28;20482;-80
2021/05/10 06:09:10;;;;;;;1.47;1.10;;;;;;;;;;5034377;28;20493;-80
2021/05/10 06:11:37;;;;;;;3.00;1.53;;;;;;;;;;5050269;28;20404;-86
2021/05/10 06:14:03;;;;;;;0.80;0.70;;;;;;;;;;5034347;28;21069;-82
2021/05/10 06:16:30;;;;;;;1.20;0.90;;;;;;;;;;5033556;28;20402;-83
2021/05/10 06:18:56;;;;;;;2.20;1.17;;;;;;;;;;5034242;28;20394;-81
2021/05/10 06:21:22;;;;;;;1.00;0.90;;;;;;;;;;5035115;28;20390;-82
2021/05/10 06:23:50;;;;;;;1.90;0.90;;;;;;;;;;5034873;28;20414;-85
2021/05/10 06:26:16;;;;;;;0.80;0.73;;;;;;;;;;5034617;28;20424;-82
2021/05/10 06:28:42;;;;;;;2.87;2.57;;;;;;;;;;5034828;28;20943;-80
2021/05/10 06:31:10;;;;;;;1.23;1.13;;;;;;;;;;5035578;28;21074;-81
2021/05/10 06:33:36;;;;;;;2.07;1.37;;;;;;;;;;5036631;28;20401;-82
2021/05/10 06:36:04;;;;;;;3.60;1.00;;;;;;;;;;5036718;28;20424;-80
2021/05/10 06:38:30;;;;;;;1.30;0.93;;;;;;;;;;5053800;28;20414;-84
2021/05/10 06:40:56;;;;;;;3.30;1.60;;;;;;;;;;5031268;28;20438;-82
2021/05/10 06:43:22;;;;;;;0.93;0.83;;;;;;;;;;5027664;28;20805;-79
2021/05/10 06:45:48;;;;;;;1.33;1.10;;;;;;;;;;5029407;28;20459;-78
2021/05/10 06:48:31;;;;;;;1.00;0.80;;;;;;;;;;5025262;28;20547;-80
2021/05/10 06:50:57;;;;;;;1.47;0.80;;;;;;;;;;5032588;28;20408;-78
2021/05/10 06:53:26;;;;;;;1.97;1.47;;;;;;;;;;5032371;28;20381;-81
2021/05/10 06:55:52;;;;;;;1.03;0.93;;;;;;;;;;5037273;28;20991;-83
2021/05/10 06:58:18;;;;;;;1.53;0.80;;;;;;;;;;5037775;28;20423;-82
2021/05/10 07:00:45;;;;;;;1.20;1.00;;;;;;;;;;5037543;28;20415;-84
2021/05/10 07:03:14;;;;;;;2.40;1.30;;;;;;;;;;5027644;28;20770;-83
2021/05/10 07:05:42;;;;;;;1.40;1.23;;;;;;;;;;5016808;28;20432;-83
2021/05/10 07:08:09;;;;;;;4.80;2.33;;;;;;;;;;5027199;28;20811;-84
2021/05/10 07:10:35;;;;;;;2.60;1.57;;;;;;;;;;5034640;28;20404;-83
2021/05/10 07:13:01;;;;;;;5.40;1.87;;;;;;;;;;5038121;28;20421;-83
2021/05/10 07:15:27;;;;;;;4.33;2.43;;;;;;;;;;5038020;28;20379;-82
2021/05/10 07:18:06;;;;;;;2.23;1.00;;;;;;;;;;5039642;28;20389;-85
2021/05/10 07:20:32;;;;;;;2.17;1.43;;;;;;;;;;5036945;28;20385;-83
2021/05/10 07:22:59;;;;;;;1.40;1.20;;;;;;;;;;5034516;28;20389;-81
2021/05/10 07:25:25;;;;;;;1.43;0.90;;;;;;;;;;5050306;28;20453;-79
2021/05/10 07:27:51;;;;;;;0.80;0.60;;;;;;;;;;5035960;28;20470;-81
2021/05/10 07:30:17;;;;;;;1.80;1.20;;;;;;;;;;5035351;28;20390;-81
2021/05/10 07:32:46;;;;;;;1.20;0.90;;;;;;;;;;5036436;28;20470;-81
2021/05/10 07:35:12;;;;;;;0.90;0.80;;;;;;;;;;5035113;28;20386;-79
2021/05/10 07:37:38;;;;;;;2.53;2.33;;;;;;;;;;5031810;28;20798;-76
2021/05/10 07:40:05;;;;;;;1.00;0.80;;;;;;;;;;5024368;28;20387;-76
2021/05/10 07:42:31;;;;;;;1.50;1.20;;;;;;;;;;5011035;28;20433;-75
2021/05/10 07:44:58;;;;;;;1.30;1.20;;;;;;;;;;5027659;28;20441;-75
2021/05/10 07:47:30;;;;;;;1.20;1.00;;;;;;;;;;5029307;28;21064;-76
2021/05/10 07:49:58;;;;;;;2.03;0.90;;;;;;;;;;5028425;28;20436;-77
2021/05/10 07:52:24;;;;;;;1.17;1.07;;;;;;;;;;5030229;28;20427;-77
2021/05/10 07:54:50;;;;;;;3.00;1.13;;;;;;;;;;5030168;28;20408;-77
2021/05/10 07:57:16;;;;;;;5.97;1.20;;;;;;;;;;5029882;28;20455;-77
2021/05/10 07:59:44;;;;;;;2.57;1.20;;;;;;;;;;5028851;28;20435;-75
2021/05/10 08:02:11;;;;;;;1.43;1.30;;;;;;;;;;5028948;28;20513;-75
2021/05/10 08:04:38;;;;;;;0.80;0.77;;;;;;;;;;5027708;28;20494;-74
2021/05/10 08:07:04;;;;;;;7.10;1.17;;;;;;;;;;5028998;28;20550;-75
2021/05/10 08:09:30;;;;;;;3.17;0.90;;;;;;;;;;5027214;28;20379;-75
2021/05/10 08:11:56;;;;;;;1.50;1.20;;;;;;;;;;5028942;28;20853;-75
2021/05/10 08:14:22;;;;;;;1.10;0.80;;;;;;;;;;5029135;28;20415;-76
2021/05/10 08:16:49;;;;;;;3.43;1.30;;;;;;;;;;5027699;28;21101;-75
2021/05/10 08:19:15;;;;;;;2.47;1.10;;;;;;;;;;5028350;28;20439;-75
2021/05/10 08:21:41;;;;;;;1.07;0.93;;;;;;;;;;5028762;28;20382;-76
2021/05/10 08:24:07;;;;;;;7.53;3.30;;;;;;;;;;5027933;28;20430;-75
2021/05/10 08:26:34;;;;;;;2.10;1.60;;;;;;;;;;5028452;28;20934;-75
2021/05/10 08:29:01;;;;;;;2.27;1.07;;;;;;;;;;5028109;28;20383;-74
2021/05/10 08:31:27;;;;;;;3.00;1.27;;;;;;;;;;5029163;28;20385;-75
2021/05/10 08:33:53;;;;;;;2.00;1.80;;;;;;;;;;5030671;28;20522;-75
2021/05/10 08:36:19;;;;;;;3.90;2.97;;;;;;;;;;5049824;28;20494;-74
2021/05/10 08:38:46;;;;;;;3.27;2.07;;;;;;;;;;5057114;28;20391;-74
2021/05/10 08:41:12;;;;;;;5.80;2.00;;;;;;;;;;5055761;28;20401;-73
2021/05/10 08:43:38;;;;;;;3.27;1.67;;;;;;;;;;5055647;28;20452;-73
2021/05/10 08:46:06;;;;;;;3.03;0.90;;;;;;;;;;5051951;28;20501;-75
2021/05/10 08:48:32;;;;;;;4.60;1.53;;;;;;;;;;5051941;28;20481;-76
2021/05/10 08:50:58;;;;;;;1.13;0.83;;;;;;;;;;5032558;28;20411;-76
2021/05/10 08:53:33;;;;;;;1.40;0.80;;;;;;;;;;5031731;28;20416;-77
2021/05/10 08:55:59;;;;;;;3.53;1.03;;;;;;;;;;5036056;28;20446;-78
2021/05/10 08:58:26;;;;;;;1.30;1.20;;;;;;;;;;5036549;28;20413;-78
2021/05/10 09:00:53;;;;;;;4.50;0.80;;;;;;;;;;5035127;28;20443;-78
2021/05/10 09:03:19;;;;;;;3.20;1.53;;;;;;;;;;5037416;28;20905;-77
2021/05/10 09:05:50;;;;;;;1.67;0.90;;;;;;;;;;5032037;28;20952;-76
2021/05/10 09:08:16;;;;;;;1.10;0.80;;;;;;;;;;5032821;28;20427;-76
2021/05/10 09:10:42;;;;;;;3.30;1.03;;;;;;;;;;5031642;28;20487;-76
2021/05/10 09:13:09;;;;;;;2.13;1.33;;;;;;;;;;5032281;28;20399;-76
2021/05/10 09:15:35;;;;;;;0.87;0.70;;;;;;;;;;5032079;28;20473;-76
2021/05/10 09:18:05;;;;;;;0.90;0.60;;;;;;;;;;5032246;28;20958;-76
2021/05/10 09:20:42;;;;;;;1.20;0.73;;;;;;;;;;5031572;28;20378;-76
2021/05/10 09:23:09;;;;;;;0.80;0.80;;;;;;;;;;5030614;28;20411;-76
2021/05/10 09:25:36;;;;;;;1.00;0.70;;;;;;;;;;5031854;28;20913;-76
2021/05/10 09:28:16;;;;;;;1.20;0.60;;;;;;;;;;5030918;28;20382;-76
2021/05/10 09:30:43;;;;;;;1.20;0.80;;;;;;;;;;5030784;28;20462;-77
2021/05/10 09:33:15;;;;;;;0.90;0.80;;;;;;;;;;5029240;28;20848;-76
2021/05/10 09:35:41;;;;;;;1.40;0.70;;;;;;;;;;5043952;28;20917;-76
2021/05/10 09:38:08;;;;;;;1.03;0.70;;;;;;;;;;5031442;28;20466;-76
2021/05/10 09:40:42;;;;;;;1.40;1.30;;;;;;;;;;5029950;28;20408;-76
2021/05/10 09:43:08;;;;;;;0.80;0.60;;;;;;;;;;5032231;28;20408;-76
2021/05/10 09:45:39;;;;;;;1.53;1.00;;;;;;;;;;5032012;28;20427;-76
2021/05/10 09:48:09;;;;;;;3.57;2.70;;;;;;;;;;5030918;28;20457;-76
2021/05/10 09:50:40;;;;;;;1.07;0.97;;;;;;;;;;5029045;28;20419;-76
2021/05/10 09:53:11;;;;;;;1.07;0.63;;;;;;;;;;5028762;28;20965;-76
2021/05/10 09:55:38;;;;;;;2.17;1.30;;;;;;;;;;5031101;28;20463;-76
2021/05/10 09:58:07;;;;;;;1.47;1.37;;;;;;;;;;5031959;28;20404;-76
2021/05/10 10:00:33;;;;;;;0.97;0.87;;;;;;;;;;5031396;28;20489;-76
2021/05/10 10:03:00;;;;;;;1.00;0.70;;;;;;;;;;5022631;28;20430;-76
2021/05/10 10:05:28;;;;;;;0.90;0.70;;;;;;;;;;5032731;28;20396;-74
2021/05/10 10:07:54;;;;;;;3.17;1.00;;;;;;;;;;5031724;28;20448;-81
2021/05/10 10:10:20;;;;;;;1.00;0.90;;;;;;;;;;5037568;28;20431;-81
2021/05/10 10:12:49;;;;;;;221.53;205.27;;;;;;;;;;5038488;28;20479;-81
2021/05/10 10:15:14;;;;;;;;;;;;;;;;;;5038271;28;20464;-75
2021/05/10 10:17:41;;;;;;;1.00;0.80;;;;;;;;;;5017708;28;20414;-73
2021/05/10 10:20:08;;;;;;;1.30;0.80;;;;;;;;;;5013483;28;20181;-74
2021/05/10 10:22:34;;;;;;;381.43;346.87;;;;;;;;;;5032357;28;20967;-77
2021/05/10 10:25:03;;;;;;;0.90;0.63;;;;;;;;;;5046678;28;20456;-81
2021/05/10 10:27:29;;;;;;;77.03;69.40;;;;;;;;;;5032338;28;20430;-76
2021/05/10 10:29:56;;;;;;;178.37;153.27;;;;;;;;;;5047844;28;20404;-75
2021/05/10 10:32:22;;;;;;;228.23;205.33;;;;;;;;;;5034285;28;20479;-76
2021/05/10 10:34:49;;;;;;;276.37;227.33;;;;;;;;;;5033134;28;20895;-77
2021/05/10 10:37:18;;;;;;;1.00;0.90;;;;;;;;;;5048006;28;20586;-76
2021/05/10 10:39:51;;;;;;;0.97;0.73;;;;;;;;;;5043826;28;20444;-77
2021/05/10 10:42:25;;;;;;;1.00;0.90;;;;;;;;;;5028782;28;20416;-77
2021/05/10 10:44:56;;;;;;;2.07;1.80;;;;;;;;;;5027525;28;20451;-76
2021/05/10 10:47:43;;;;;;;1.50;0.80;;;;;;;;;;5028882;28;20428;-77
2021/05/10 10:50:10;;;;;;;2.13;1.70;;;;;;;;;;5029247;28;20415;-77
2021/05/10 10:52:46;;;;;;;1.63;1.27;;;;;;;;;;5029949;28;20396;-77
2021/05/10 10:55:13;;;;;;;2.07;0.87;;;;;;;;;;5028791;28;20499;-77
2021/05/10 10:58:24;;;;;;;1.33;0.77;;;;;;;;;;5027851;28;20428;-79
2021/05/10 11:00:56;;;;;;;4.40;0.80;;;;;;;;;;5027957;28;20432;-73
2021/05/10 11:03:25;;;;;;;0.90;0.70;;;;;;;;;;5032650;28;20451;-76
2021/05/10 11:05:51;;;;;;;1.20;1.00;;;;;;;;;;5031047;28;20501;-77
2021/05/10 11:08:17;;;;;;;9.87;1.60;;;;;;;;;;5031666;28;20414;-77
2021/05/10 11:10:46;;;;;;;1.10;0.70;;;;;;;;;;5031242;28;20404;-77
2021/05/10 11:13:28;;;;;;;3.50;1.87;;;;;;;;;;5031566;28;20400;-77
2021/05/10 11:15:55;;;;;;;1.23;0.87;;;;;;;;;;5031974;28;20817;-76
2021/05/10 11:18:36;;;;;;;1.53;1.43;;;;;;;;;;5031270;28;20411;-77
2021/05/10 11:21:02;;;;;;;3.03;1.73;;;;;;;;;;5029952;28;20507;-77
2021/05/10 11:23:29;;;;;;;1.63;1.50;;;;;;;;;;5031145;28;20448;-76
2021/05/10 11:26:02;;;;;;;1.77;0.90;;;;;;;;;;5030599;28;20789;-76
2021/05/10 11:28:28;;;;;;;1.20;1.03;;;;;;;;;;5030952;28;20402;-77
2021/05/10 11:30:55;;;;;;;1.00;0.80;;;;;;;;;;5030545;28;20919;-76
2021/05/10 11:33:41;;;;;;;1.03;0.80;;;;;;;;;;5043419;28;20411;-77
2021/05/10 11:36:07;;;;;;;1.13;0.80;;;;;;;;;;5029808;28;20948;-78
2021/05/10 11:38:33;;;;;;;0.70;0.60;;;;;;;;;;5030158;28;20427;-77
2021/05/10 11:40:59;;;;;;;1.10;0.97;;;;;;;;;;5027965;28;20427;-77
2021/05/10 11:43:25;;;;;;;15.77;1.90;;;;;;;;;;5030214;28;20931;-77
2021/05/10 11:45:52;;;;;;;1.20;1.10;;;;;;;;;;5028219;28;20419;-77
2021/05/10 11:48:38;;;;;;;2.60;1.20;;;;;;;;;;5029026;28;20491;-77
2021/05/10 11:51:20;;;;;;;1.33;1.10;;;;;;;;;;5030302;28;20414;-77
2021/05/10 11:53:46;;;;;;;3.13;2.93;;;;;;;;;;5030337;28;20428;-77
2021/05/10 11:56:14;;;;;;;1.83;0.73;;;;;;;;;;5030506;28;20491;-77
2021/05/10 11:59:01;;;;;;;1.30;0.77;;;;;;;;;;5029294;28;20491;-77
2021/05/10 12:01:35;;;;;;;1.23;1.13;;;;;;;;;;5029947;28;20410;-77
2021/05/10 12:04:19;;;;;;;1.00;0.63;;;;;;;;;;5015365;28;20448;-77
2021/05/10 12:06:45;;;;;;;1.57;0.90;;;;;;;;;;5031544;28;20447;-77
2021/05/10 12:09:30;;;;;;;1.00;0.80;;;;;;;;;;5028584;28;20854;-77
2021/05/10 12:11:56;;;;;;;2.70;1.33;;;;;;;;;;5028338;28;20494;-77
2021/05/10 12:14:22;;;;;;;1.20;1.10;;;;;;;;;;5030614;28;20486;-78
2021/05/10 12:17:04;;;;;;;1.50;1.00;;;;;;;;;;5030670;28;20956;-77
2021/05/10 12:19:48;;;;;;;0.90;0.80;;;;;;;;;;5030481;28;20407;-77
2021/05/10 12:22:14;;;;;;;1.80;1.50;;;;;;;;;;5032569;28;20403;-77
2021/05/10 12:24:56;;;;;;;0.80;0.60;;;;;;;;;;5034952;28;20458;-77
2021/05/10 12:27:23;;;;;;;0.90;0.70;;;;;;;;;;5033026;28;20415;-76
2021/05/10 12:29:49;;;;;;;1.60;0.77;;;;;;;;;;5034955;28;20395;-77
2021/05/10 12:32:18;;;;;;;1.03;0.70;;;;;;;;;;5033002;28;20418;-77
2021/05/10 12:34:44;;;;;;;0.93;0.77;;;;;;;;;;5032248;28;20408;-77
2021/05/10 12:37:10;;;;;;;1.20;1.00;;;;;;;;;;5034337;28;20940;-77
2021/05/10 12:39:37;;;;;;;1.63;1.53;;;;;;;;;;5045212;28;20449;-83
2021/05/10 12:42:12;;;;;;;1.67;0.70;;;;;;;;;;5044457;28;20847;-77
2021/05/10 12:44:38;;;;;;;1.10;0.90;;;;;;;;;;5034929;28;20457;-76
2021/05/10 12:47:07;;;;;;;1.13;1.03;;;;;;;;;;5034995;28;20424;-77
2021/05/10 12:49:33;;;;;;;1.77;0.83;;;;;;;;;;5033854;28;20414;-77
2021/05/10 12:51:59;;;;;;;7.80;1.97;;;;;;;;;;5035622;28;20495;-76
2021/05/10 12:54:25;;;;;;;0.87;0.70;;;;;;;;;;5034294;28;20450;-76
2021/05/10 12:56:53;;;;;;;1.73;0.90;;;;;;;;;;5033327;28;21059;-73
2021/05/10 12:59:19;;;;;;;2.97;1.70;;;;;;;;;;5036358;28;20412;-75
2021/05/10 13:01:48;;;;;;;2.90;2.37;;;;;;;;;;5033403;28;20486;-76
2021/05/10 13:04:20;;;;;;;65.73;30.27;;;;;;;;;;5034511;28;20917;-77
2021/05/10 13:06:53;;;;;;;38.97;18.53;;;;;;;;;;5033787;28;20423;-77
2021/05/10 13:09:26;;;;;;;13.80;8.27;;;;;;;;;;5034996;28;20404;-77
2021/05/10 13:11:58;;;;;;;6.60;5.17;;;;;;;;;;5035221;28;20408;-77
2021/05/10 13:14:28;;;;;;;7.33;3.63;;;;;;;;;;5035427;28;20447;-77
2021/05/10 13:31:10;;;;;;;1.33;1.03;;;;;;;;;;5035579;28;20431;-76
2021/05/10 13:36:07;;;;;;;2.93;2.63;;;;;;;;;;5033831;28;20456;-76
2021/05/10 13:38:33;;;;;;;287.67;267.53;;;;;;;;;;5033660;28;20392;-76
2021/05/10 13:41:03;;;;;;;60.37;53.80;;;;;;;;;;5013396;28;20409;-75
2021/05/10 13:43:35;;;;;;;0.80;0.70;;;;;;;;;;5014195;28;20415;-76
2021/05/10 13:46:07;;;;;;;1.83;1.50;;;;;;;;;;5014848;28;20491;-76
2021/05/10 13:48:33;;;;;;;1.70;1.00;;;;;;;;;;5013448;28;20894;-77
2021/05/10 13:50:59;;;;;;;2.60;1.10;;;;;;;;;;5013985;28;20405;-76
2021/05/10 13:53:25;;;;;;;1.63;1.10;;;;;;;;;;5014388;28;20560;-76
2021/05/10 13:55:51;;;;;;;3.23;1.17;;;;;;;;;;5013562;28;20440;-77
2021/05/10 13:58:17;;;;;;;2.00;1.63;;;;;;;;;;5013703;28;20409;-77
2021/05/10 14:00:43;;;;;;;1.87;1.10;;;;;;;;;;5013740;28;20543;-77
2021/05/10 14:03:09;;;;;;;2.70;2.00;;;;;;;;;;5014015;28;20397;-77
2021/05/10 14:05:35;;;;;;;5.97;2.10;;;;;;;;;;5029494;28;20428;-77
2021/05/10 14:08:04;;;;;;;5.20;4.13;;;;;;;;;;5034134;28;20804;-77
2021/05/10 14:10:32;;;;;;;8.70;6.33;;;;;;;;;;5034360;28;20423;-77
2021/05/10 14:12:58;;;;;;;11.63;5.07;;;;;;;;;;5035393;28;20901;-77
2021/05/10 14:15:24;;;;;;;3.43;3.13;;;;;;;;;;5034413;28;20445;-77
2021/05/10 14:17:50;;;;;;;1.23;1.10;;;;;;;;;;5033838;28;20392;-77
2021/05/10 14:20:23;;;;;;;5.97;3.50;;;;;;;;;;5034123;28;20400;-77
2021/05/10 14:22:52;;;;;;;3.70;2.53;;;;;;;;;;5033563;28;20404;-76
2021/05/10 14:25:20;;;;;;;5.07;2.80;;;;;;;;;;5035607;28;20404;-77
2021/05/10 14:27:53;;;;;;;6.00;4.97;;;;;;;;;;5037333;28;20400;-77
2021/05/10 14:30:21;;;;;;;1.50;1.10;;;;;;;;;;5041452;28;20411;-77
2021/05/10 14:32:48;;;;;;;2.00;1.77;;;;;;;;;;5058383;28;20452;-77
2021/05/10 14:35:14;;;;;;;3.10;2.87;;;;;;;;;;5073703;28;20498;-76
2021/05/10 14:37:40;;;;;;;2.70;1.57;;;;;;;;;;5058222;28;20395;-76
2021/05/10 14:40:06;;;;;;;5.63;2.37;;;;;;;;;;5062118;28;20409;-77
2021/05/10 14:42:32;;;;;;;3.57;2.00;;;;;;;;;;5038376;28;20400;-76
2021/05/10 14:44:58;;;;;;;1.00;0.80;;;;;;;;;;5046301;28;20416;-76
2021/05/10 14:47:24;;;;;;;1.63;1.40;;;;;;;;;;5054536;28;20402;-76
2021/05/10 14:49:50;;;;;;;1.30;0.90;;;;;;;;;;5048656;28;20454;-76
2021/05/10 14:52:19;;;;;;;1.13;0.93;;;;;;;;;;5043926;28;20483;-76
2021/05/10 14:54:45;;;;;;;0.87;0.73;;;;;;;;;;5014329;28;20559;-76
2021/05/10 14:57:11;;;;;;;1.00;0.90;;;;;;;;;;5019709;23;20638;-72
2021/05/10 14:59:39;;;;;;;1.13;1.03;;;;;;;;;;5011306;28;20405;-70
2021/05/10 15:02:05;;;;;;;4.17;2.00;;;;;;;;;;5011648;28;20516;-68
2021/05/10 15:04:31;;;;;;;1.00;0.80;;;;;;;;;;4994539;28;20444;-72
2021/05/10 15:06:57;;;;;;;1.37;1.00;;;;;;;;;;4992138;28;21010;-70
2021/05/10 15:09:23;;;;;;;5.77;3.00;;;;;;;;;;4994929;28;20387;-71
2021/05/10 15:11:49;;;;;;;2.87;1.10;;;;;;;;;;5011610;28;20382;-70